createdAt,value
2023-03-27T00:01:13.226Z,1.80
2023-03-27T00:03:40.873Z,1.80
2023-03-27T00:06:16.441Z,1.80
2023-03-27T00:08:44.943Z,1.80
2023-03-27T00:11:12.173Z,1.80
2023-03-27T00:13:42.484Z,1.80
2023-03-27T00:16:21.777Z,1.80
2023-03-27T00:18:49.160Z,1.80
2023-03-27T00:21:16.595Z,1.80
2023-03-27T00:23:43.576Z,1.80
2023-03-27T00:26:12.284Z,1.80
2023-03-27T00:28:39.672Z,1.80
2023-03-27T00:31:11.706Z,1.80
2023-03-27T00:33:39.626Z,1.80
2023-03-27T00:36:07.258Z,1.90
2023-03-27T00:38:34.283Z,1.90
2023-03-27T00:41:01.671Z,1.90
2023-03-27T00:43:35.516Z,2.00
2023-03-27T00:46:05.399Z,1.90
2023-03-27T00:48:35.687Z,2.00
2023-03-27T00:51:03.941Z,2.00
2023-03-27T00:53:31.467Z,1.90
2023-03-27T00:56:03.040Z,1.90
2023-03-27T00:58:40.880Z,1.90
2023-03-27T01:01:09.329Z,2.00
2023-03-27T01:03:36.553Z,2.00
2023-03-27T01:06:04.674Z,2.00
2023-03-27T01:08:34.859Z,2.10
2023-03-27T01:11:18.988Z,2.10
2023-03-27T01:14:04.326Z,2.00
2023-03-27T01:16:59.998Z,2.00
2023-03-27T01:19:53.483Z,1.90
2023-03-27T01:23:00.934Z,2.00
2023-03-27T01:26:02.864Z,1.90
2023-03-27T01:29:00.830Z,1.90
2023-03-27T01:32:06.277Z,1.80
2023-03-27T01:35:01.007Z,1.90
2023-03-27T01:38:18.668Z,1.90
2023-03-27T01:40:58.645Z,1.80
2023-03-27T01:43:57.431Z,1.90
2023-03-27T01:46:32.827Z,1.90
2023-03-27T01:49:08.529Z,1.90
2023-03-27T01:51:44.143Z,2.00
2023-03-27T01:54:15.721Z,2.00
2023-03-27T01:56:54.713Z,2.00
2023-03-27T01:59:27.203Z,2.10
2023-03-27T02:02:01.166Z,2.00
2023-03-27T02:04:37.578Z,1.80
2023-03-27T02:07:11.087Z,1.80
2023-03-27T02:09:49.589Z,1.70
2023-03-27T02:12:35.711Z,1.70
2023-03-27T02:15:22.530Z,1.70
2023-03-27T02:18:05.129Z,1.60
2023-03-27T02:20:34.532Z,1.60
2023-03-27T02:23:02.410Z,1.50
2023-03-27T02:25:29.475Z,1.50
2023-03-27T02:28:10.794Z,1.50
2023-03-27T02:31:05.693Z,1.50
2023-03-27T02:33:43.316Z,1.40
2023-03-27T02:36:44.674Z,1.40
2023-03-27T02:39:23.800Z,1.40
2023-03-27T02:42:06.176Z,1.40
2023-03-27T02:44:46.564Z,1.40
2023-03-27T02:47:20.664Z,1.40
2023-03-27T02:49:57.612Z,1.40
2023-03-27T02:52:35.258Z,1.40
2023-03-27T02:55:21.861Z,1.40
2023-03-27T02:57:51.720Z,1.40
2023-03-27T03:00:25.661Z,1.40
2023-03-27T03:03:30.644Z,1.40
2023-03-27T03:05:58.774Z,1.40
2023-03-27T03:08:30.733Z,1.40
2023-03-27T03:11:03.610Z,1.40
2023-03-27T03:13:30.876Z,1.40
2023-03-27T03:15:58.521Z,1.40
2023-03-27T03:18:25.550Z,1.40
2023-03-27T03:20:55.565Z,1.40
2023-03-27T03:23:23.792Z,1.40
2023-03-27T03:25:52.824Z,1.40
2023-03-27T03:28:19.808Z,1.40
2023-03-27T03:30:50.759Z,1.40
2023-03-27T03:33:19.536Z,1.30
2023-03-27T03:35:50.644Z,1.30
2023-03-27T03:38:25.110Z,1.30
2023-03-27T03:40:56.660Z,1.30
2023-03-27T03:43:25.909Z,1.30
2023-03-27T03:45:53.662Z,1.30
2023-03-27T03:48:21.813Z,1.30
2023-03-27T03:50:49.471Z,1.20
2023-03-27T03:53:19.472Z,1.20
2023-03-27T03:55:49.216Z,1.20
2023-03-27T03:58:16.550Z,1.20
2023-03-27T04:00:43.640Z,1.20
2023-03-27T04:03:11.028Z,1.20
2023-03-27T04:05:38.942Z,1.30
2023-03-27T04:08:09.537Z,1.40
2023-03-27T04:10:39.474Z,1.50
2023-03-27T04:13:06.735Z,1.50
2023-03-27T04:15:34.091Z,1.50
2023-03-27T04:18:01.220Z,1.50
2023-03-27T04:20:28.699Z,1.40
2023-03-27T04:22:55.760Z,1.30
2023-03-27T04:25:24.572Z,1.40
2023-03-27T04:27:52.081Z,1.30
2023-03-27T04:30:23.968Z,1.30
2023-03-27T04:32:52.677Z,1.30
2023-03-27T04:35:20.894Z,1.30
2023-03-27T04:37:48.744Z,1.20
2023-03-27T04:40:19.300Z,1.20
2023-03-27T04:42:46.409Z,1.20
2023-03-27T04:45:17.852Z,1.10
2023-03-27T04:47:44.968Z,1.10
2023-03-27T04:50:13.027Z,1.10
2023-03-27T04:52:39.952Z,1.10
2023-03-27T04:55:08.195Z,1.00
2023-03-27T04:57:35.289Z,1.10
2023-03-27T05:00:14.106Z,1.10
2023-03-27T05:02:41.623Z,1.00
2023-03-27T05:05:09.148Z,1.00
2023-03-27T05:07:36.475Z,1.00
2023-03-27T05:10:04.743Z,1.00
2023-03-27T05:12:32.092Z,1.00
2023-03-27T05:14:59.608Z,0.90
2023-03-27T05:17:26.518Z,0.90
2023-03-27T05:19:53.410Z,0.90
2023-03-27T05:22:20.342Z,0.90
2023-03-27T05:24:47.219Z,0.90
2023-03-27T05:27:15.300Z,0.90
2023-03-27T05:29:47.436Z,0.90
2023-03-27T05:32:15.077Z,0.90
2023-03-27T05:34:42.635Z,0.90
2023-03-27T05:37:09.685Z,0.90
2023-03-27T05:39:36.955Z,0.90
2023-03-27T05:42:04.397Z,0.90
2023-03-27T05:44:31.443Z,0.80
2023-03-27T05:46:59.487Z,0.80
2023-03-27T05:49:26.330Z,0.80
2023-03-27T05:51:53.446Z,0.80
2023-03-27T05:54:20.968Z,0.80
2023-03-27T05:56:48.225Z,0.80
2023-03-27T05:59:15.366Z,0.80
2023-03-27T06:01:42.734Z,0.80
2023-03-27T06:04:11.192Z,0.80
2023-03-27T06:06:39.173Z,0.80
2023-03-27T06:09:07.854Z,0.80
2023-03-27T06:11:34.782Z,0.80
2023-03-27T06:14:01.850Z,0.80
2023-03-27T06:16:28.959Z,0.80
2023-03-27T06:18:56.280Z,0.80
2023-03-27T06:21:23.643Z,0.80
2023-03-27T06:23:50.700Z,0.90
2023-03-27T06:26:18.967Z,0.80
2023-03-27T06:28:45.954Z,0.90
2023-03-27T06:31:14.859Z,0.90
2023-03-27T06:33:41.857Z,0.90
2023-03-27T06:36:10.264Z,0.90
2023-03-27T06:38:37.375Z,1.00
2023-03-27T06:41:04.787Z,1.00
2023-03-27T06:43:31.711Z,1.10
2023-03-27T06:45:58.763Z,1.20
2023-03-27T06:48:25.904Z,1.20
2023-03-27T06:50:53.531Z,1.30
2023-03-27T06:53:27.230Z,1.30
2023-03-27T06:55:56.515Z,1.30
2023-03-27T06:58:24.118Z,1.30
2023-03-27T07:00:51.482Z,1.30
2023-03-27T07:03:21.415Z,1.40
2023-03-27T07:05:49.706Z,1.40
2023-03-27T07:08:24.547Z,1.40
2023-03-27T07:11:10.583Z,1.50
2023-03-27T07:13:38.919Z,1.50
2023-03-27T07:16:06.401Z,1.60
2023-03-27T07:18:33.429Z,1.60
2023-03-27T07:21:00.779Z,1.70
2023-03-27T07:23:27.973Z,1.80
2023-03-27T07:26:01.608Z,1.80
2023-03-27T07:28:28.826Z,1.80
2023-03-27T07:30:56.215Z,1.90
2023-03-27T07:33:23.479Z,1.90
2023-03-27T07:35:50.894Z,1.90
2023-03-27T07:38:18.407Z,1.90
2023-03-27T07:40:46.587Z,1.90
2023-03-27T07:43:14.308Z,1.90
2023-03-27T07:45:42.096Z,1.90
2023-03-27T07:48:18.831Z,1.90
2023-03-27T07:50:46.377Z,2.00
2023-03-27T07:53:33.788Z,2.10
2023-03-27T07:56:00.563Z,2.10
2023-03-27T07:58:27.734Z,2.20
2023-03-27T08:00:58.276Z,2.20
2023-03-27T08:03:26.186Z,2.30
2023-03-27T08:05:55.387Z,2.30
2023-03-27T08:08:23.222Z,2.40
2023-03-27T08:10:50.891Z,2.40
2023-03-27T08:13:18.416Z,2.40
2023-03-27T08:15:45.567Z,2.50
2023-03-27T08:18:12.558Z,2.50
2023-03-27T08:20:39.711Z,2.60
2023-03-27T08:23:06.909Z,2.70
2023-03-27T08:25:34.702Z,2.70
2023-03-27T08:28:02.876Z,2.70
2023-03-27T08:30:30.176Z,2.70
2023-03-27T08:33:00.208Z,2.80
2023-03-27T08:35:27.279Z,2.90
2023-03-27T08:37:54.227Z,2.90
2023-03-27T08:40:28.382Z,3.00
2023-03-27T08:43:01.479Z,3.00
2023-03-27T08:46:07.151Z,3.10
2023-03-27T08:49:06.231Z,3.10
2023-03-27T08:51:45.467Z,3.20
2023-03-27T08:54:23.148Z,3.30
2023-03-27T08:56:50.822Z,3.40
2023-03-27T08:59:24.600Z,3.50
2023-03-27T09:02:20.076Z,3.50
2023-03-27T09:05:05.293Z,3.60
2023-03-27T09:07:44.329Z,3.60
2023-03-27T09:10:36.909Z,3.70
2023-03-27T09:13:15.384Z,3.80
2023-03-27T09:15:52.413Z,3.90
2023-03-27T09:18:31.314Z,3.90
2023-03-27T09:21:07.985Z,3.90
2023-03-27T09:23:49.200Z,4.00
2023-03-27T09:26:24.197Z,4.00
2023-03-27T09:28:56.240Z,4.10
2023-03-27T09:31:35.129Z,4.20
2023-03-27T09:34:07.791Z,4.30
2023-03-27T09:36:36.169Z,4.40
2023-03-27T09:39:12.814Z,4.50
2023-03-27T09:41:44.458Z,4.50
2023-03-27T09:44:18.025Z,4.70
2023-03-27T09:46:48.981Z,4.80
2023-03-27T09:49:19.060Z,4.80
2023-03-27T09:51:48.842Z,4.90
2023-03-27T09:54:18.543Z,5.10
2023-03-27T09:56:53.534Z,5.20
2023-03-27T09:59:55.116Z,5.20
2023-03-27T10:02:27.380Z,5.30
2023-03-27T10:05:04.498Z,5.30
2023-03-27T10:07:31.760Z,5.40
2023-03-27T10:10:12.342Z,5.50
2023-03-27T10:12:40.488Z,5.70
2023-03-27T10:15:30.214Z,5.80
2023-03-27T10:17:57.271Z,6.00
2023-03-27T10:20:24.353Z,6.00
2023-03-27T10:23:03.899Z,6.10
2023-03-27T10:25:34.562Z,6.20
2023-03-27T10:28:28.757Z,6.20
2023-03-27T10:31:28.493Z,6.40
2023-03-27T10:33:59.381Z,6.50
2023-03-27T10:36:26.629Z,6.60
2023-03-27T10:39:14.724Z,6.70
2023-03-27T10:41:41.846Z,6.80
2023-03-27T10:44:19.082Z,7.10
2023-03-27T10:46:46.322Z,7.10
2023-03-27T10:49:46.304Z,7.10
2023-03-27T10:52:36.904Z,7.10
2023-03-27T10:55:12.535Z,7.40
2023-03-27T10:57:40.722Z,7.70
2023-03-27T11:00:19.913Z,7.70
2023-03-27T11:02:57.764Z,7.90
2023-03-27T11:05:31.961Z,8.00
2023-03-27T11:08:24.200Z,8.10
2023-03-27T11:10:52.240Z,8.20
2023-03-27T11:13:28.228Z,7.90
2023-03-27T11:15:58.185Z,7.90
2023-03-27T11:18:29.913Z,8.00
2023-03-27T11:21:01.858Z,8.20
2023-03-27T11:23:39.847Z,8.50
2023-03-27T11:26:11.187Z,9.00
2023-03-27T11:28:57.675Z,8.90
2023-03-27T11:31:46.800Z,9.40
2023-03-27T11:34:28.766Z,9.70
2023-03-27T11:37:07.686Z,9.90
2023-03-27T11:40:09.446Z,9.90
2023-03-27T11:42:44.713Z,10.60
2023-03-27T11:45:14.082Z,11.40
2023-03-27T11:47:43.959Z,11.60
2023-03-27T11:50:38.719Z,11.20
2023-03-27T11:53:27.312Z,10.90
2023-03-27T11:56:06.235Z,10.90
2023-03-27T11:58:57.511Z,10.70
2023-03-27T12:01:35.098Z,11.20
2023-03-27T12:04:09.344Z,11.80
2023-03-27T12:07:04.016Z,12.10
2023-03-27T12:10:00.575Z,12.50
2023-03-27T12:12:35.503Z,11.90
2023-03-27T12:15:40.011Z,11.80
2023-03-27T12:18:12.741Z,11.70
2023-03-27T12:20:55.666Z,11.40
2023-03-27T12:23:42.575Z,11.40
2023-03-27T12:26:31.238Z,10.90
2023-03-27T12:28:58.493Z,10.80
2023-03-27T12:31:52.881Z,11.80
2023-03-27T12:34:34.927Z,12.20
2023-03-27T12:37:03.348Z,12.50
2023-03-27T12:39:30.402Z,13.10
2023-03-27T12:41:57.440Z,14.20
2023-03-27T12:44:32.289Z,15.60
2023-03-27T12:47:14.501Z,16.40
2023-03-27T12:49:48.181Z,17.60
2023-03-27T12:52:15.717Z,17.90
2023-03-27T12:55:14.430Z,15.60
2023-03-27T12:57:46.198Z,16.80
2023-03-27T13:00:25.776Z,17.60
2023-03-27T13:03:08.260Z,18.90
2023-03-27T13:06:12.843Z,19.20
2023-03-27T13:08:48.775Z,17.70
2023-03-27T13:11:18.801Z,17.40
2023-03-27T13:14:04.816Z,18.10
2023-03-27T13:16:53.696Z,16.60
2023-03-27T13:19:38.019Z,14.30
2023-03-27T13:22:08.186Z,14.60
2023-03-27T13:24:52.626Z,16.90
2023-03-27T13:27:44.810Z,20.40
2023-03-27T13:30:39.519Z,17.80
2023-03-27T13:33:29.493Z,15.50
2023-03-27T13:36:00.149Z,15.40
2023-03-27T13:39:08.796Z,17.70
2023-03-27T13:41:48.750Z,19.40
2023-03-27T13:44:33.318Z,18.30
2023-03-27T13:47:28.494Z,18.50
2023-03-27T13:49:59.132Z,18.60
2023-03-27T13:52:41.214Z,18.20
2023-03-27T13:55:17.649Z,18.70
2023-03-27T13:58:10.946Z,21.40
2023-03-27T14:00:41.707Z,22.60
2023-03-27T14:03:14.811Z,22.50
2023-03-27T14:06:30.685Z,22.90
2023-03-27T14:09:16.084Z,22.10
2023-03-27T14:12:08.199Z,22.60
2023-03-27T14:15:12.062Z,23.20
2023-03-27T14:17:54.683Z,23.60
2023-03-27T14:20:25.424Z,23.30
2023-03-27T14:23:03.461Z,23.20
2023-03-27T14:25:38.495Z,23.30
2023-03-27T14:28:10.339Z,23.70
2023-03-27T14:30:48.285Z,23.70
2023-03-27T14:33:20.589Z,23.10
2023-03-27T14:35:56.163Z,20.70
2023-03-27T14:38:31.072Z,19.20
2023-03-27T14:40:59.772Z,20.30
2023-03-27T14:43:28.376Z,19.80
2023-03-27T14:46:06.167Z,20.90
2023-03-27T14:48:34.643Z,21.20
2023-03-27T14:51:07.445Z,17.60
2023-03-27T14:53:44.043Z,19.00
2023-03-27T14:56:30.066Z,19.60
2023-03-27T14:59:02.159Z,21.20
2023-03-27T15:01:32.172Z,21.60
2023-03-27T15:04:05.766Z,21.10
2023-03-27T15:06:36.634Z,20.90
2023-03-27T15:09:12.218Z,18.50
2023-03-27T15:11:41.148Z,19.10
2023-03-27T15:14:20.752Z,19.10
2023-03-27T15:17:11.204Z,20.40
2023-03-27T15:19:45.418Z,19.10
2023-03-27T15:22:27.804Z,19.80
2023-03-27T15:25:02.947Z,18.50
2023-03-27T15:27:38.264Z,19.10
2023-03-27T15:30:21.530Z,18.30
2023-03-27T15:32:52.422Z,17.80
2023-03-27T15:35:35.545Z,17.00
2023-03-27T15:38:04.854Z,17.30
2023-03-27T15:40:36.945Z,18.20
2023-03-27T15:43:06.908Z,18.50
2023-03-27T15:45:43.146Z,17.90
2023-03-27T15:48:12.987Z,16.10
2023-03-27T15:50:40.023Z,16.50
2023-03-27T15:53:06.998Z,17.50
2023-03-27T15:55:55.575Z,17.10
2023-03-27T15:58:43.716Z,17.50
2023-03-27T16:01:19.737Z,18.00
2023-03-27T16:03:48.486Z,18.40
2023-03-27T16:06:28.049Z,18.00
2023-03-27T16:08:55.640Z,17.40
2023-03-27T16:11:55.956Z,16.10
2023-03-27T16:14:33.379Z,16.50
2023-03-27T16:17:12.336Z,16.10
2023-03-27T16:19:54.551Z,15.90
2023-03-27T16:22:30.054Z,16.70
2023-03-27T16:24:57.905Z,17.60
2023-03-27T16:27:33.971Z,16.90
2023-03-27T16:30:00.969Z,16.90
2023-03-27T16:32:28.041Z,15.80
2023-03-27T16:34:56.113Z,15.50
2023-03-27T16:37:26.748Z,15.90
2023-03-27T16:39:55.086Z,15.80
2023-03-27T16:42:26.105Z,15.60
2023-03-27T16:44:54.149Z,15.30
2023-03-27T16:47:23.209Z,14.80
2023-03-27T16:50:03.562Z,15.40
2023-03-27T16:52:37.227Z,14.50
2023-03-27T16:55:07.254Z,14.80
2023-03-27T16:57:35.245Z,14.30
2023-03-27T17:00:02.235Z,14.40
2023-03-27T17:02:30.814Z,14.80
2023-03-27T17:04:59.673Z,15.50
2023-03-27T17:07:27.627Z,15.50
2023-03-27T17:09:54.939Z,15.10
2023-03-27T17:12:22.682Z,14.70
2023-03-27T17:14:50.116Z,14.00
2023-03-27T17:17:17.259Z,14.80
2023-03-27T17:19:44.150Z,13.90
2023-03-27T17:22:13.087Z,14.40
2023-03-27T17:24:53.438Z,13.80
2023-03-27T17:27:25.901Z,13.30
2023-03-27T17:29:52.849Z,13.60
2023-03-27T17:32:19.922Z,13.80
2023-03-27T17:34:47.322Z,13.50
2023-03-27T17:37:14.818Z,13.70
2023-03-27T17:39:41.749Z,13.40
2023-03-27T17:42:08.750Z,12.80
2023-03-27T17:44:36.870Z,13.00
2023-03-27T17:47:04.504Z,12.90
2023-03-27T17:49:31.911Z,12.10
2023-03-27T17:51:58.831Z,11.80
2023-03-27T17:54:25.796Z,11.60
2023-03-27T17:56:52.686Z,11.20
2023-03-27T17:59:20.996Z,11.00
2023-03-27T18:01:48.275Z,10.60
2023-03-27T18:04:15.197Z,10.20
2023-03-27T18:06:42.372Z,9.90
2023-03-27T18:09:09.788Z,9.70
2023-03-27T18:11:37.126Z,9.60
2023-03-27T18:14:04.217Z,9.20
2023-03-27T18:16:31.129Z,9.00
2023-03-27T18:18:58.045Z,8.60
2023-03-27T18:21:25.154Z,8.40
2023-03-27T18:23:53.889Z,8.40
2023-03-27T18:26:21.062Z,8.30
2023-03-27T18:28:47.963Z,8.50
2023-03-27T18:31:15.916Z,8.40
2023-03-27T18:33:42.846Z,8.50
2023-03-27T18:36:12.137Z,8.30
2023-03-27T18:38:40.826Z,8.30
2023-03-27T18:41:08.647Z,8.30
2023-03-27T18:43:36.741Z,8.30
2023-03-27T18:46:05.794Z,8.30
2023-03-27T18:48:34.171Z,8.10
2023-03-27T18:51:03.939Z,8.00
2023-03-27T18:53:31.647Z,8.10
2023-03-27T18:55:59.596Z,7.90
2023-03-27T18:58:28.775Z,7.90
2023-03-27T19:00:57.298Z,7.90
2023-03-27T19:03:26.956Z,7.80
2023-03-27T19:05:54.066Z,7.60
2023-03-27T19:08:22.014Z,7.50
2023-03-27T19:10:49.301Z,7.60
2023-03-27T19:13:16.772Z,7.40
2023-03-27T19:15:43.996Z,7.30
2023-03-27T19:18:11.125Z,7.40
2023-03-27T19:20:38.606Z,7.10
2023-03-27T19:23:05.491Z,7.20
2023-03-27T19:25:35.967Z,7.00
2023-03-27T19:28:04.269Z,6.90
2023-03-27T19:30:32.370Z,6.90
2023-03-27T19:32:59.633Z,6.80
2023-03-27T19:35:27.090Z,6.90
2023-03-27T19:37:54.666Z,6.80
2023-03-27T19:40:21.857Z,6.80
2023-03-27T19:42:48.963Z,6.80
2023-03-27T19:45:16.546Z,6.50
2023-03-27T19:47:43.712Z,6.40
2023-03-27T19:50:11.184Z,6.40
2023-03-27T19:52:38.089Z,6.30
2023-03-27T19:55:06.770Z,6.30
2023-03-27T19:57:33.728Z,6.30
2023-03-27T20:00:00.844Z,6.20
2023-03-27T20:02:27.917Z,6.10
2023-03-27T20:04:55.121Z,5.90
2023-03-27T20:07:22.074Z,6.00
2023-03-27T20:09:48.948Z,5.90
2023-03-27T20:12:18.310Z,6.10
2023-03-27T20:14:51.327Z,6.00
2023-03-27T20:17:29.190Z,5.90
2023-03-27T20:19:56.235Z,5.90
2023-03-27T20:22:23.202Z,5.90
2023-03-27T20:24:50.297Z,5.90
2023-03-27T20:27:19.954Z,5.90
2023-03-27T20:29:47.428Z,5.80
2023-03-27T20:32:14.831Z,5.90
2023-03-27T20:34:41.872Z,5.80
2023-03-27T20:37:12.011Z,5.70
2023-03-27T20:39:47.105Z,5.70
2023-03-27T20:42:16.150Z,5.70
2023-03-27T20:44:45.150Z,5.90
2023-03-27T20:47:13.341Z,5.90
2023-03-27T20:49:42.942Z,5.90
2023-03-27T20:52:16.798Z,5.90
2023-03-27T20:54:43.767Z,5.70
2023-03-27T20:57:11.312Z,5.70
2023-03-27T20:59:38.460Z,5.60
2023-03-27T21:02:06.088Z,5.70
2023-03-27T21:04:37.779Z,5.70
2023-03-27T21:07:05.248Z,5.70
2023-03-27T21:09:32.418Z,5.60
2023-03-27T21:12:01.168Z,5.60
2023-03-27T21:14:28.138Z,5.60
2023-03-27T21:16:55.590Z,5.70
2023-03-27T21:19:22.560Z,5.80
2023-03-27T21:21:49.601Z,5.70
2023-03-27T21:24:16.803Z,5.70
2023-03-27T21:26:43.743Z,5.70
2023-03-27T21:29:10.975Z,5.70
2023-03-27T21:31:41.774Z,5.60
2023-03-27T21:34:09.053Z,5.40
2023-03-27T21:36:37.924Z,5.40
2023-03-27T21:39:05.585Z,5.40
2023-03-27T21:41:32.602Z,5.30
2023-03-27T21:43:59.595Z,5.20
2023-03-27T21:46:26.793Z,5.30
2023-03-27T21:48:53.803Z,5.50
2023-03-27T21:51:21.168Z,5.60
2023-03-27T21:53:48.118Z,5.60
2023-03-27T21:56:15.358Z,5.50
2023-03-27T21:58:42.364Z,5.50
2023-03-27T22:01:09.481Z,5.20
2023-03-27T22:03:36.495Z,5.30
2023-03-27T22:06:12.484Z,5.30
2023-03-27T22:08:42.036Z,5.30
2023-03-27T22:11:10.078Z,5.20
2023-03-27T22:13:38.240Z,5.20
2023-03-27T22:16:13.463Z,5.00
2023-03-27T22:18:41.332Z,4.70
2023-03-27T22:21:24.546Z,4.70
2023-03-27T22:23:52.411Z,4.60
2023-03-27T22:26:21.142Z,4.60
2023-03-27T22:28:48.235Z,4.60
2023-03-27T22:31:15.218Z,4.60
2023-03-27T22:33:42.129Z,4.60
2023-03-27T22:36:11.252Z,4.60
2023-03-27T22:38:38.685Z,4.40
2023-03-27T22:41:07.532Z,4.40
2023-03-27T22:43:34.807Z,4.40
2023-03-27T22:46:13.233Z,4.40
2023-03-27T22:48:40.845Z,4.50
2023-03-27T22:51:08.487Z,4.50
2023-03-27T22:53:35.940Z,4.60
2023-03-27T22:56:04.045Z,4.60
2023-03-27T22:58:31.455Z,4.60
2023-03-27T23:00:58.696Z,4.50
2023-03-27T23:03:27.037Z,4.50
2023-03-27T23:05:54.771Z,4.40
2023-03-27T23:08:24.242Z,4.30
2023-03-27T23:10:56.388Z,4.30
2023-03-27T23:13:24.461Z,4.30
2023-03-27T23:15:51.967Z,4.20
2023-03-27T23:18:23.867Z,4.20
2023-03-27T23:21:02.125Z,4.20
2023-03-27T23:23:30.725Z,4.20
2023-03-27T23:25:57.919Z,4.30
2023-03-27T23:28:25.602Z,4.40
2023-03-27T23:30:57.109Z,4.40
2023-03-27T23:33:25.306Z,4.30
2023-03-27T23:36:02.451Z,4.20
2023-03-27T23:38:29.694Z,4.20
2023-03-27T23:40:57.468Z,4.30
2023-03-27T23:43:26.772Z,4.30
2023-03-27T23:45:54.028Z,4.10
2023-03-27T23:48:21.152Z,4.00
2023-03-27T23:50:48.432Z,4.00
2023-03-27T23:53:15.678Z,4.00
2023-03-27T23:55:42.537Z,4.10
2023-03-27T23:58:09.596Z,4.00
